createdAt,value
2023-03-30T00:03:45.384Z,100613.83
2023-03-30T00:08:59.053Z,100609.91
2023-03-30T00:14:04.619Z,100602.41
2023-03-30T00:19:10.182Z,100601.16
2023-03-30T00:24:16.004Z,100592.98
2023-03-30T00:29:21.774Z,100575.70
2023-03-30T00:34:27.427Z,100563.52
2023-03-30T00:39:33.985Z,100570.18
2023-03-30T00:45:08.405Z,100560.50
2023-03-30T00:50:16.957Z,100556.02
2023-03-30T00:55:25.658Z,100544.80
2023-03-30T01:00:32.875Z,100529.17
2023-03-30T01:05:40.392Z,100530.86
2023-03-30T01:10:47.128Z,100526.77
2023-03-30T01:15:58.953Z,100519.75
2023-03-30T01:21:10.982Z,100512.55
2023-03-30T01:26:38.227Z,100512.59
2023-03-30T01:32:00.784Z,100501.13
2023-03-30T01:37:33.769Z,100488.78
2023-03-30T01:42:43.833Z,100480.42
2023-03-30T01:48:09.359Z,100484.86
2023-03-30T01:53:19.187Z,100464.06
2023-03-30T01:58:28.354Z,100461.69
2023-03-30T02:03:36.424Z,100464.27
2023-03-30T02:08:44.382Z,100457.64
2023-03-30T02:13:52.839Z,100455.83
2023-03-30T02:18:58.862Z,100450.97
2023-03-30T02:24:08.855Z,100446.84
2023-03-30T02:29:16.182Z,100441.02
2023-03-30T02:34:34.237Z,100432.53
2023-03-30T02:39:58.011Z,100424.05
2023-03-30T02:45:30.854Z,100411.18
2023-03-30T02:50:46.542Z,100416.70
2023-03-30T02:56:04.301Z,100414.53
2023-03-30T03:01:20.650Z,100411.42
2023-03-30T03:06:32.390Z,100404.86
2023-03-30T03:11:38.600Z,100401.65
2023-03-30T03:16:44.351Z,100406.63
2023-03-30T03:21:54.230Z,100406.33
2023-03-30T03:26:59.925Z,100402.63
2023-03-30T03:32:07.289Z,100392.31
2023-03-30T03:37:14.666Z,100387.53
2023-03-30T03:42:22.288Z,100378.75
2023-03-30T03:47:29.585Z,100363.88
2023-03-30T03:52:35.646Z,100349.38
2023-03-30T03:57:41.819Z,100324.09
2023-03-30T04:02:47.671Z,100316.45
2023-03-30T04:07:55.051Z,100308.75
2023-03-30T04:13:02.477Z,100298.63
2023-03-30T04:18:24.860Z,100303.02
2023-03-30T04:23:49.193Z,100297.68
2023-03-30T04:29:00.381Z,100289.28
2023-03-30T04:34:24.270Z,100288.90
2023-03-30T04:39:44.205Z,100285.56
2023-03-30T04:45:08.557Z,100279.45
2023-03-30T04:50:16.395Z,100275.36
2023-03-30T04:55:38.904Z,100265.22
2023-03-30T05:00:50.292Z,100259.88
2023-03-30T05:06:16.129Z,100265.41
2023-03-30T05:11:32.743Z,100242.12
2023-03-30T05:16:57.013Z,100242.03
2023-03-30T05:22:04.335Z,100240.98
2023-03-30T05:27:15.003Z,100238.41
2023-03-30T05:32:22.732Z,100232.94
2023-03-30T05:37:36.566Z,100213.50
2023-03-30T05:42:46.552Z,100204.02
2023-03-30T05:47:55.383Z,100193.42
2023-03-30T05:53:14.919Z,100207.92
2023-03-30T05:58:22.368Z,100204.20
2023-03-30T06:03:29.783Z,100196.47
2023-03-30T06:08:36.118Z,100213.64
2023-03-30T06:13:42.831Z,100197.32
2023-03-30T06:18:48.558Z,100191.27
2023-03-30T06:23:54.499Z,100186.30
2023-03-30T06:29:02.514Z,100189.51
2023-03-30T06:34:09.263Z,100183.83
2023-03-30T06:39:16.063Z,100174.19
2023-03-30T06:44:22.041Z,100156.82
2023-03-30T06:49:29.070Z,100158.38
2023-03-30T06:54:51.778Z,100160.19
2023-03-30T06:59:57.921Z,100148.84
2023-03-30T07:05:22.444Z,100138.95
2023-03-30T07:10:32.952Z,100131.35
2023-03-30T07:15:40.286Z,100110.75
2023-03-30T07:20:47.276Z,100118.29
2023-03-30T07:25:57.494Z,100109.64
2023-03-30T07:31:10.133Z,100096.56
2023-03-30T07:36:17.408Z,100093.68
2023-03-30T07:41:23.481Z,100090.31
2023-03-30T07:46:31.365Z,100078.96
2023-03-30T07:51:39.771Z,100072.02
2023-03-30T07:56:56.012Z,100060.26
2023-03-30T08:02:01.848Z,100069.79
2023-03-30T08:07:18.332Z,100078.88
2023-03-30T08:12:25.746Z,100070.02
2023-03-30T08:17:31.892Z,100073.98
2023-03-30T08:22:37.449Z,100046.29
2023-03-30T08:27:42.968Z,100017.45
2023-03-30T08:32:48.569Z,100009.09
2023-03-30T08:37:54.712Z,99995.45
2023-03-30T08:43:20.217Z,99993.13
2023-03-30T08:48:29.064Z,100004.94
2023-03-30T08:53:38.547Z,99997.80
2023-03-30T08:59:02.195Z,100002.71
2023-03-30T09:04:33.223Z,99959.19
2023-03-30T09:09:49.455Z,99959.98
2023-03-30T09:14:58.094Z,99949.88
2023-03-30T09:20:27.814Z,99949.14
2023-03-30T09:25:36.538Z,99942.86
2023-03-30T09:30:45.096Z,99937.22
2023-03-30T09:36:07.303Z,99933.80
2023-03-30T09:41:22.115Z,99944.64
2023-03-30T09:46:27.731Z,99955.37
2023-03-30T09:51:33.583Z,99959.91
2023-03-30T09:56:45.913Z,99948.29
2023-03-30T10:01:51.801Z,99942.19
2023-03-30T10:07:02.222Z,99936.02
2023-03-30T10:12:05.033Z,99943.34
2023-03-30T10:17:13.685Z,99929.92
2023-03-30T10:22:23.103Z,99931.61
2023-03-30T10:27:37.506Z,99908.98
2023-03-30T10:32:47.225Z,99905.92
2023-03-30T10:37:55.914Z,99892.77
2023-03-30T10:43:03.861Z,99893.13
2023-03-30T10:48:24.559Z,99897.88
2023-03-30T10:53:36.236Z,99894.97
2023-03-30T10:59:07.379Z,99907.79
2023-03-30T11:04:23.788Z,99921.83
2023-03-30T11:09:31.435Z,99931.77
2023-03-30T11:14:52.058Z,99936.91
2023-03-30T11:20:01.933Z,99922.05
2023-03-30T11:25:10.671Z,99912.28
2023-03-30T11:30:23.444Z,99908.14
2023-03-30T11:35:44.274Z,99904.23
2023-03-30T11:40:52.857Z,99897.88
2023-03-30T11:46:13.668Z,99894.02
2023-03-30T11:51:31.085Z,99893.34
2023-03-30T11:56:47.051Z,99902.28
2023-03-30T12:01:55.589Z,99892.00
2023-03-30T12:07:02.808Z,99887.38
2023-03-30T12:12:15.952Z,99875.75
2023-03-30T12:17:42.512Z,99866.80
2023-03-30T12:22:57.088Z,99855.69
2023-03-30T12:28:08.637Z,99844.92
2023-03-30T12:33:32.418Z,99838.14
2023-03-30T12:38:41.101Z,99831.22
2023-03-30T12:43:55.656Z,99831.45
2023-03-30T12:49:33.448Z,99818.44
2023-03-30T12:54:41.931Z,99808.86
2023-03-30T12:59:56.317Z,99796.35
2023-03-30T13:05:02.467Z,99802.11
2023-03-30T13:10:35.360Z,99783.43
2023-03-30T13:15:54.609Z,99775.88
2023-03-30T13:21:06.234Z,99768.12
2023-03-30T13:26:33.951Z,99747.65
2023-03-30T13:32:05.076Z,99744.75
2023-03-30T13:37:25.570Z,99733.38
2023-03-30T13:42:53.404Z,99718.42
2023-03-30T13:48:23.433Z,99709.67
2023-03-30T13:53:31.982Z,99700.87
2023-03-30T13:58:38.801Z,99678.02
2023-03-30T14:03:53.289Z,99676.02
2023-03-30T14:09:11.198Z,99670.97
2023-03-30T14:14:20.683Z,99663.48
2023-03-30T14:19:32.091Z,99665.13
2023-03-30T14:24:37.750Z,99650.39
2023-03-30T14:29:52.130Z,99660.46
2023-03-30T14:34:57.692Z,99673.97
2023-03-30T14:40:05.145Z,99739.68
2023-03-30T14:45:13.133Z,99737.08
2023-03-30T14:50:19.178Z,99725.88
2023-03-30T14:55:26.882Z,99729.00
2023-03-30T15:00:34.477Z,99729.81
2023-03-30T15:05:42.832Z,99724.85
2023-03-30T15:10:58.436Z,99704.72
2023-03-30T15:16:06.700Z,99698.05
2023-03-30T15:21:14.619Z,99699.88
2023-03-30T15:26:21.432Z,99676.23
2023-03-30T15:31:29.226Z,99671.20
2023-03-30T15:36:42.041Z,99676.92
2023-03-30T15:42:04.427Z,99684.47
2023-03-30T15:47:15.920Z,99677.83
2023-03-30T15:52:38.753Z,99689.44
2023-03-30T15:57:47.431Z,99697.45
2023-03-30T16:02:58.738Z,99691.62
2023-03-30T16:08:05.589Z,99683.56
2023-03-30T16:13:13.308Z,99674.41
2023-03-30T16:18:20.572Z,99675.41
2023-03-30T16:23:26.238Z,99681.53
2023-03-30T16:28:32.164Z,99694.86
2023-03-30T16:33:37.735Z,99716.20
2023-03-30T16:38:44.153Z,99735.89
2023-03-30T16:43:50.583Z,99736.38
2023-03-30T16:48:56.360Z,99738.62
2023-03-30T16:54:02.293Z,99739.13
2023-03-30T16:59:10.305Z,99736.95
2023-03-30T17:04:16.120Z,99737.33
2023-03-30T17:09:22.109Z,99761.59
2023-03-30T17:14:28.344Z,99773.67
2023-03-30T17:19:34.170Z,99783.97
2023-03-30T17:24:39.736Z,99793.86
2023-03-30T17:29:45.429Z,99810.34
2023-03-30T17:34:50.930Z,99801.80
2023-03-30T17:39:56.447Z,99820.70
2023-03-30T17:45:02.158Z,99830.34
2023-03-30T17:50:16.990Z,99846.80
2023-03-30T17:55:25.918Z,99854.84
2023-03-30T18:00:34.621Z,99858.29
2023-03-30T18:05:40.336Z,99860.12
2023-03-30T18:10:51.708Z,99860.34
2023-03-30T18:15:59.239Z,99855.59
2023-03-30T18:21:06.904Z,99844.02
2023-03-30T18:26:14.440Z,99854.13
2023-03-30T18:31:21.114Z,99872.66
2023-03-30T18:36:26.806Z,99885.72
2023-03-30T18:41:32.506Z,99890.33
2023-03-30T18:46:38.390Z,99886.31
2023-03-30T18:51:44.097Z,99893.85
2023-03-30T18:56:50.032Z,99890.20
2023-03-30T19:01:55.711Z,99879.00
2023-03-30T19:07:01.648Z,99882.52
2023-03-30T19:12:07.962Z,99882.14
2023-03-30T19:17:15.241Z,99894.08
2023-03-30T19:22:20.802Z,99898.30
2023-03-30T19:27:26.551Z,99905.23
2023-03-30T19:32:32.365Z,99902.87
2023-03-30T19:37:40.747Z,99896.55
2023-03-30T19:42:47.620Z,99889.63
2023-03-30T19:47:53.820Z,99887.17
2023-03-30T19:52:59.810Z,99882.91
2023-03-30T19:58:05.423Z,99882.02
2023-03-30T20:03:12.953Z,99882.28
2023-03-30T20:08:24.235Z,99883.75
2023-03-30T20:13:27.507Z,99882.27
2023-03-30T20:18:34.817Z,99873.28
2023-03-30T20:23:41.146Z,99881.17
2023-03-30T20:28:50.057Z,99882.11
2023-03-30T20:33:57.147Z,99874.92
2023-03-30T20:39:03.039Z,99881.88
2023-03-30T20:44:13.498Z,99888.31
2023-03-30T20:49:19.457Z,99894.78
2023-03-30T20:54:25.494Z,99898.09
2023-03-30T20:59:31.107Z,99907.95
2023-03-30T21:04:36.849Z,99916.69
2023-03-30T21:09:42.352Z,99927.77
2023-03-30T21:14:48.023Z,99938.74
2023-03-30T21:19:53.533Z,99940.42
2023-03-30T21:24:59.137Z,99941.38
2023-03-30T21:30:06.515Z,99941.60
2023-03-30T21:35:12.005Z,99930.30
2023-03-30T21:40:17.679Z,99923.23
2023-03-30T21:45:24.770Z,99916.80
2023-03-30T21:50:30.522Z,99914.95
2023-03-30T21:55:36.045Z,99913.27
2023-03-30T22:00:41.545Z,99902.78
2023-03-30T22:05:48.129Z,99900.63
2023-03-30T22:11:02.830Z,99897.05
2023-03-30T22:16:14.337Z,99888.33
2023-03-30T22:21:25.291Z,99884.42
2023-03-30T22:26:31.101Z,99887.13
2023-03-30T22:31:36.795Z,99892.22
2023-03-30T22:36:43.653Z,99877.66
2023-03-30T22:41:50.522Z,99881.17
2023-03-30T22:46:56.424Z,99868.09
2023-03-30T22:52:04.221Z,99864.55
2023-03-30T22:57:10.005Z,99861.77
2023-03-30T23:02:16.133Z,99839.40
2023-03-30T23:07:21.814Z,99851.63
2023-03-30T23:12:27.251Z,99845.19
2023-03-30T23:17:32.723Z,99843.59
2023-03-30T23:22:39.486Z,99836.53
2023-03-30T23:27:45.025Z,99846.81
2023-03-30T23:32:51.204Z,99842.75
2023-03-30T23:37:56.674Z,99832.80
2023-03-30T23:43:02.108Z,99823.06
2023-03-30T23:48:08.267Z,99817.77
2023-03-30T23:53:13.954Z,99817.77
2023-03-30T23:58:20.359Z,99810.92
